Time;durP1;ratioP1;P1;durP2;ratioP2;P2;SDS_P1;SDS_P2;PMS_P1;PMS_P2;Temp;Humidity;BMP_temperature;BMP_pressure;BME280_temperature;BME280_humidity;BME280_pressure;Samples;Min_cycle;Max_cycle;Signal;HPM_P1;HPM_P2
2021/12/31 00:00:30;;;;;;;11.57;8.05;;;12.10;98.60;;;;;;4932964;29;20024;-88
2021/12/31 00:03:14;;;;;;;12.75;8.07;;;12.10;98.60;;;;;;4932026;29;20086;-89
2021/12/31 00:05:41;;;;;;;14.82;8.75;;;12.10;98.60;;;;;;4929182;29;20026;-89
2021/12/31 00:08:16;;;;;;;17.77;10.80;;;12.10;98.50;;;;;;4930820;29;20030;-89
2021/12/31 00:10:59;;;;;;;;;;;;;;;;;;;;;
2021/12/31 00:13:45;;;;;;;17.20;11.23;;;12.10;98.60;;;;;;4924512;29;20028;-89
2021/12/31 00:16:10;;;;;;;20.30;10.98;;;12.10;98.60;;;;;;4926782;29;20028;-88
2021/12/31 00:18:46;;;;;;;25.50;12.25;;;12.10;98.60;;;;;;4943200;28;20058;-88
2021/12/31 00:21:12;;;;;;;20.67;11.45;;;12.00;98.60;;;;;;4928656;29;20028;-90
2021/12/31 00:23:44;;;;;;;21.00;11.98;;;12.10;98.60;;;;;;4944189;28;20024;-88
2021/12/31 00:26:15;;;;;;;20.23;12.60;;;12.10;98.40;;;;;;4918533;29;20038;-89
2021/12/31 00:29:04;;;;;;;21.40;12.18;;;12.10;98.40;;;;;;4934022;29;20071;-88
2021/12/31 00:31:39;;;;;;;20.27;11.85;;;12.10;98.20;;;;;;4933235;29;20027;-88
2021/12/31 00:34:05;;;;;;;18.48;11.60;;;12.10;98.20;;;;;;4945914;28;20127;-88
2021/12/31 00:36:48;;;;;;;25.60;12.60;;;12.10;98.20;;;;;;4948642;28;20458;-88
2021/12/31 00:39:16;;;;;;;18.45;11.57;;;12.10;98.10;;;;;;4949686;28;20468;-89
2021/12/31 00:41:46;;;;;;;22.38;11.98;;;12.10;98.10;;;;;;4933982;29;20027;-88
2021/12/31 00:44:12;;;;;;;20.35;12.40;;;12.10;98.10;;;;;;4936094;29;20023;-89
2021/12/31 00:46:37;;;;;;;24.05;12.95;;;12.10;98.00;;;;;;4934234;29;20035;-88
2021/12/31 00:49:06;;;;;;;20.17;11.25;;;12.10;97.80;;;;;;4931932;29;20028;-88
2021/12/31 00:51:35;;;;;;;18.38;10.32;;;12.10;97.80;;;;;;4933469;29;20019;-89
2021/12/31 00:54:05;;;;;;;17.98;10.30;;;12.20;97.60;;;;;;4949038;29;20059;-88
2021/12/31 00:56:44;;;;;;;15.23;9.53;;;12.20;97.30;;;;;;4930851;29;20115;-88
2021/12/31 00:59:16;;;;;;;17.05;9.52;;;12.20;97.20;;;;;;4933886;29;20106;-89
2021/12/31 01:01:47;;;;;;;23.02;10.43;;;12.10;97.20;;;;;;4933686;29;20079;-88
2021/12/31 01:04:13;;;;;;;20.45;8.85;;;12.10;97.20;;;;;;4928710;29;20020;-88
2021/12/31 01:06:43;;;;;;;19.52;7.97;;;12.10;97.20;;;;;;4934839;29;20032;-89
2021/12/31 01:09:08;;;;;;;20.97;8.10;;;12.10;97.00;;;;;;4933616;29;20046;-88
2021/12/31 01:11:39;;;;;;;16.55;7.20;;;12.20;96.80;;;;;;4934774;29;20111;-88
2021/12/31 01:14:15;;;;;;;13.75;6.80;;;12.20;96.60;;;;;;4932124;29;20038;-88
2021/12/31 01:16:48;;;;;;;14.38;7.38;;;12.20;96.40;;;;;;4934075;29;20031;-89
2021/12/31 01:21:39;;;;;;;14.55;4.95;;;12.20;96.30;;;;;;4931408;29;20490;-89
2021/12/31 01:24:05;;;;;;;13.13;6.25;;;12.20;96.20;;;;;;4931609;29;20028;-89
2021/12/31 01:26:43;;;;;;;;;;;;;;;;;;;;;
2021/12/31 01:29:09;;;;;;;12.60;5.05;;;12.10;96.10;;;;;;4930932;29;20034;-89
2021/12/31 01:31:50;;;;;;;13.48;4.75;;;12.10;96.00;;;;;;4934910;29;20554;-88
2021/12/31 01:34:24;;;;;;;15.95;5.68;;;12.20;95.90;;;;;;4927536;29;20115;-88
2021/12/31 01:37:03;;;;;;;;;;;;;;;;;;;;;
2021/12/31 01:39:29;;;;;;;11.32;5.38;;;12.10;95.90;;;;;;4929180;29;20028;-89
2021/12/31 01:42:03;;;;;;;13.15;4.90;;;12.20;95.70;;;;;;4931044;29;20110;-89
2021/12/31 01:44:44;;;;;;;14.77;5.07;;;12.20;95.70;;;;;;4932528;29;20028;-89
2021/12/31 01:47:15;;;;;;;11.18;5.07;;;12.10;95.90;;;;;;4932951;29;20441;-89
2021/12/31 01:49:58;;;;;;;10.65;5.75;;;12.10;96.00;;;;;;4927860;29;20582;-89
2021/12/31 01:52:36;;;;;;;10.93;5.40;;;12.10;95.90;;;;;;4933254;29;20499;-89
2021/12/31 01:55:11;;;;;;;13.40;6.18;;;12.10;95.70;;;;;;4927471;29;20035;-89
2021/12/31 01:57:41;;;;;;;9.68;5.78;;;12.10;95.70;;;;;;4942557;29;20504;-89
2021/12/31 02:00:10;;;;;;;17.47;5.90;;;12.10;95.60;;;;;;4931644;29;20024;-89
2021/12/31 02:02:45;;;;;;;10.93;6.30;;;12.20;95.30;;;;;;4930087;29;20060;-89
2021/12/31 02:05:14;;;;;;;10.75;5.50;;;12.10;95.30;;;;;;4925655;29;20385;-89
2021/12/31 02:07:42;;;;;;;15.82;6.05;;;12.10;95.30;;;;;;4929217;29;20091;-89
2021/12/31 02:10:09;;;;;;;15.68;5.30;;;12.20;95.20;;;;;;4930258;29;20059;-89
2021/12/31 02:12:38;;;;;;;12.45;5.57;;;12.20;95.10;;;;;;4928781;29;20028;-89
2021/12/31 02:15:12;;;;;;;12.48;5.70;;;12.10;95.40;;;;;;4944940;29;20024;-89
2021/12/31 02:17:51;;;;;;;;;;;;;;;;;;;;;
2021/12/31 02:20:19;;;;;;;12.50;5.43;;;12.10;95.10;;;;;;4930372;29;20031;-89
2021/12/31 02:23:23;;;;;;;13.18;6.00;;;12.10;95.20;;;;;;4931944;29;20055;-89
2021/12/31 02:26:00;;;;;;;13.65;5.60;;;12.20;95.20;;;;;;4930708;29;20070;-89
2021/12/31 02:28:42;;;;;;;12.85;5.70;;;12.30;94.90;;;;;;4929224;29;20392;-89
2021/12/31 02:31:17;;;;;;;11.98;5.90;;;12.10;95.10;;;;;;4930799;29;20095;-89
2021/12/31 02:34:03;;;;;;;15.75;5.57;;;12.20;94.80;;;;;;4923996;29;20050;-89
2021/12/31 02:36:53;;;;;;;12.23;5.40;;;12.30;94.60;;;;;;4931075;29;20479;-90
2021/12/31 02:39:19;;;;;;;15.70;6.30;;;12.30;94.70;;;;;;4948438;29;20462;-89
2021/12/31 02:42:08;;;;;;;14.85;6.18;;;12.20;94.80;;;;;;4932924;29;20114;-89
2021/12/31 02:44:35;;;;;;;15.02;6.03;;;12.20;94.90;;;;;;4930526;29;20163;-89
2021/12/31 02:47:05;;;;;;;11.82;6.13;;;12.30;94.60;;;;;;4928616;29;20344;-89
2021/12/31 02:49:36;;;;;;;15.95;6.18;;;12.30;94.40;;;;;;4930290;29;20578;-89
2021/12/31 02:54:55;;;;;;;;;;;12.30;94.40;;;;;;4921251;29;20506;-89
2021/12/31 02:57:26;;;;;;;14.85;5.05;;;12.20;94.60;;;;;;4943576;29;20283;-90
2021/12/31 03:00:01;;;;;;;11.80;4.85;;;12.10;94.80;;;;;;4930840;29;20045;-90
2021/12/31 03:02:27;;;;;;;8.00;4.25;;;12.20;94.50;;;;;;4927785;29;20039;-89
2021/12/31 03:04:58;;;;;;;13.70;5.20;;;12.30;94.20;;;;;;4926963;29;20019;-89
2021/12/31 03:07:33;;;;;;;11.55;3.85;;;12.30;94.10;;;;;;4932666;29;20020;-89
2021/12/31 03:10:01;;;;;;;12.35;4.90;;;12.30;94.20;;;;;;4932440;29;20115;-90
2021/12/31 03:12:31;;;;;;;10.50;4.53;;;12.30;94.10;;;;;;4921593;29;20035;-89
2021/12/31 03:15:17;;;;;;;15.63;5.45;;;12.20;94.40;;;;;;4932125;29;20058;-89
2021/12/31 03:17:46;;;;;;;10.60;4.32;;;12.10;94.60;;;;;;4929516;29;20042;-89
2021/12/31 03:20:16;;;;;;;12.18;4.50;;;12.10;94.50;;;;;;4923632;29;20079;-91
2021/12/31 03:22:43;;;;;;;10.70;4.53;;;12.10;94.50;;;;;;4928662;29;20022;-90
2021/12/31 03:25:12;;;;;;;10.93;4.10;;;12.20;94.50;;;;;;4943436;29;20276;-90
2021/12/31 03:27:56;;;;;;;11.48;3.80;;;12.20;94.20;;;;;;4924336;29;20063;-90
2021/12/31 03:30:25;;;;;;;10.13;3.75;;;12.20;94.30;;;;;;4929408;29;20039;-91
2021/12/31 03:32:59;;;;;;;10.30;3.63;;;12.10;94.40;;;;;;4945021;29;20031;-90
2021/12/31 03:35:27;;;;;;;11.98;4.07;;;12.20;94.00;;;;;;4928508;29;20036;-90
2021/12/31 03:41:31;;;;;;;10.98;3.70;;;12.20;94.00;;;;;;4926879;29;20032;-90
2021/12/31 03:44:17;;;;;;;13.73;3.10;;;12.30;93.80;;;;;;4930791;29;20142;-91
2021/12/31 03:46:43;;;;;;;8.18;2.88;;;12.20;94.10;;;;;;4930980;29;20451;-91
2021/12/31 03:49:10;;;;;;;7.72;3.25;;;12.20;94.10;;;;;;4928678;29;20028;-90
2021/12/31 03:51:47;;;;;;;8.32;3.28;;;12.30;93.80;;;;;;4930806;29;20058;-91
2021/12/31 03:54:21;;;;;;;8.38;3.53;;;12.30;93.70;;;;;;4928484;29;20031;-90
2021/12/31 03:57:04;;;;;;;10.52;3.38;;;12.20;93.90;;;;;;4929716;29;20032;-90
2021/12/31 03:59:39;;;;;;;8.40;3.70;;;12.40;93.40;;;;;;4928980;29;20495;-90
2021/12/31 04:02:07;;;;;;;11.57;3.50;;;12.20;93.80;;;;;;4928043;29;20506;-91
2021/12/31 04:04:44;;;;;;;11.35;3.03;;;12.20;93.80;;;;;;4927769;29;20781;-90
2021/12/31 04:07:12;;;;;;;13.93;3.42;;;12.30;93.70;;;;;;4928284;29;20126;-90
2021/12/31 04:09:45;;;;;;;9.15;3.25;;;12.30;93.70;;;;;;4927474;29;20035;-91
2021/12/31 04:12:21;;;;;;;;;;;;;;;;;;;;;
2021/12/31 04:15:10;;;;;;;;;;;;;;;;;;;;;
2021/12/31 04:17:35;;;;;;;7.95;3.00;;;12.30;93.30;;;;;;4925492;29;20028;-91
2021/12/31 04:20:34;;;;;;;;;;;;;;;;;;;;;
2021/12/31 04:23:07;;;;;;;8.25;2.72;;;12.30;93.30;;;;;;4930750;29;20053;-91
2021/12/31 04:25:37;;;;;;;14.73;2.90;;;12.40;93.10;;;;;;4927876;29;20443;-91
2021/12/31 04:28:06;;;;;;;7.72;2.70;;;12.30;93.20;;;;;;4928271;29;20122;-90
2021/12/31 04:30:36;;;;;;;11.77;3.03;;;12.30;93.30;;;;;;4929898;29;20068;-91
2021/12/31 04:33:06;;;;;;;10.88;2.60;;;12.30;93.60;;;;;;4928894;29;20531;-91
2021/12/31 04:35:32;;;;;;;9.38;2.47;;;12.30;93.40;;;;;;4927507;29;20035;-91
2021/12/31 04:38:09;;;;;;;12.30;2.78;;;12.30;93.40;;;;;;4929606;29;20055;-90
2021/12/31 04:40:42;;;;;;;10.68;3.00;;;12.30;93.20;;;;;;4924676;29;20513;-90
2021/12/31 04:43:10;;;;;;;6.57;2.70;;;12.30;93.40;;;;;;4927449;29;20072;-91
2021/12/31 04:45:41;;;;;;;10.15;3.17;;;12.30;93.40;;;;;;4943846;28;20059;-91
2021/12/31 04:48:07;;;;;;;10.32;2.90;;;12.30;93.50;;;;;;4926237;29;20054;-91
2021/12/31 04:50:40;;;;;;;8.80;2.47;;;12.30;93.30;;;;;;4927108;29;20491;-90
2021/12/31 04:53:26;;;;;;;9.80;3.10;;;12.30;93.60;;;;;;4930519;29;20068;-91
2021/12/31 04:56:09;;;;;;;10.48;2.95;;;12.30;93.50;;;;;;4928115;29;20460;-90
2021/12/31 04:59:07;;;;;;;8.30;3.20;;;12.30;93.50;;;;;;4928048;29;20052;-91
2021/12/31 05:01:39;;;;;;;11.38;4.28;;;12.20;93.70;;;;;;4928103;29;20103;-91
2021/12/31 05:04:15;;;;;;;12.07;4.55;;;12.20;93.70;;;;;;4923627;29;20032;-91
2021/12/31 05:06:42;;;;;;;14.13;6.05;;;12.30;93.50;;;;;;4931070;29;20031;-90
2021/12/31 05:09:15;;;;;;;11.35;5.32;;;12.30;93.50;;;;;;4924495;29;20028;-90
2021/12/31 05:11:41;;;;;;;14.18;4.93;;;12.30;93.50;;;;;;4926827;29;20864;-91
2021/12/31 05:14:06;;;;;;;8.32;4.05;;;12.40;93.30;;;;;;4931959;29;20032;-90
2021/12/31 05:16:35;;;;;;;8.18;3.88;;;12.30;93.60;;;;;;4927457;29;20024;-90
2021/12/31 05:19:01;;;;;;;12.40;4.25;;;12.30;93.60;;;;;;4927406;29;20447;-89
2021/12/31 05:21:27;;;;;;;11.18;4.00;;;12.20;93.90;;;;;;4932138;29;20028;-89
2021/12/31 05:23:52;;;;;;;11.60;3.80;;;12.20;94.00;;;;;;4932628;29;20067;-89
2021/12/31 05:26:18;;;;;;;9.63;3.92;;;12.10;94.20;;;;;;4930781;29;20484;-89
2021/12/31 05:28:43;;;;;;;10.73;4.07;;;12.20;94.10;;;;;;4947319;29;20064;-89
2021/12/31 05:31:09;;;;;;;10.38;4.30;;;12.10;94.30;;;;;;4929616;29;20520;-89
2021/12/31 05:33:34;;;;;;;9.93;4.68;;;12.10;94.30;;;;;;4930663;29;20065;-89
2021/12/31 05:36:00;;;;;;;8.27;4.07;;;12.10;94.50;;;;;;4930239;29;20040;-89
2021/12/31 05:38:26;;;;;;;7.47;4.40;;;12.10;94.50;;;;;;4927867;29;20024;-89
2021/12/31 05:40:52;;;;;;;9.90;5.07;;;12.10;94.50;;;;;;4935567;29;20039;-89
2021/12/31 05:43:17;;;;;;;14.65;6.10;;;12.10;94.70;;;;;;4933664;29;20039;-89
2021/12/31 05:45:43;;;;;;;15.25;5.70;;;12.10;94.70;;;;;;4931654;29;20461;-88
2021/12/31 05:48:08;;;;;;;9.77;5.97;;;12.20;94.50;;;;;;4929769;29;20043;-89
2021/12/31 05:50:34;;;;;;;11.55;6.35;;;12.10;94.60;;;;;;4925920;29;20024;-88
2021/12/31 05:53:00;;;;;;;12.73;6.57;;;12.10;94.80;;;;;;4927660;29;20032;-88
2021/12/31 05:55:27;;;;;;;13.57;6.65;;;12.10;94.90;;;;;;4928900;29;20036;-88
2021/12/31 05:57:55;;;;;;;12.15;6.57;;;12.10;94.70;;;;;;4930829;29;20038;-88
2021/12/31 06:00:22;;;;;;;11.35;7.43;;;12.10;94.80;;;;;;4931465;29;20078;-89
2021/12/31 06:02:47;;;;;;;15.35;7.55;;;12.20;94.70;;;;;;4933334;29;20032;-89
2021/12/31 06:05:13;;;;;;;15.40;8.40;;;12.20;94.80;;;;;;4928278;29;20480;-88
2021/12/31 06:07:39;;;;;;;14.82;8.00;;;12.20;94.70;;;;;;4932520;29;20495;-89
2021/12/31 06:10:05;;;;;;;12.63;7.85;;;12.20;94.70;;;;;;4927303;29;20080;-89
2021/12/31 06:12:31;;;;;;;14.25;7.28;;;12.20;94.80;;;;;;4930384;29;20539;-88
2021/12/31 06:14:59;;;;;;;12.88;7.60;;;12.10;94.80;;;;;;4930937;29;20046;-89
2021/12/31 06:17:27;;;;;;;10.45;7.15;;;12.20;94.50;;;;;;4927079;29;20038;-88
2021/12/31 06:19:53;;;;;;;11.73;8.43;;;12.20;94.60;;;;;;4930618;29;20070;-89
2021/12/31 06:22:20;;;;;;;13.88;8.50;;;12.20;94.70;;;;;;4929655;29;20488;-88
2021/12/31 06:24:46;;;;;;;12.55;7.65;;;12.20;94.60;;;;;;4930101;29;20031;-89
2021/12/31 06:27:11;;;;;;;13.02;7.70;;;12.20;94.70;;;;;;4931224;29;20451;-89
2021/12/31 06:29:37;;;;;;;11.88;6.75;;;12.20;94.30;;;;;;4932571;29;20482;-89
2021/12/31 06:32:04;;;;;;;12.32;7.57;;;12.20;94.60;;;;;;4930285;29;20032;-89
2021/12/31 06:34:30;;;;;;;12.43;7.55;;;12.30;94.00;;;;;;4929902;29;20063;-89
2021/12/31 06:36:56;;;;;;;10.15;7.07;;;12.20;94.30;;;;;;4929243;29;20036;-89
2021/12/31 06:39:22;;;;;;;12.93;7.47;;;12.20;94.40;;;;;;4947875;29;20078;-89
2021/12/31 06:41:47;;;;;;;10.70;7.00;;;12.20;94.30;;;;;;4933166;29;20028;-89
2021/12/31 06:44:13;;;;;;;12.05;7.18;;;12.10;94.30;;;;;;4925217;29;20043;-89
2021/12/31 06:46:39;;;;;;;11.77;6.95;;;12.10;94.30;;;;;;4928884;29;20034;-89
2021/12/31 06:49:06;;;;;;;10.07;7.15;;;12.10;94.40;;;;;;4930059;29;20016;-89
2021/12/31 06:51:32;;;;;;;9.52;6.60;;;12.10;94.30;;;;;;4932265;29;20028;-89
2021/12/31 06:53:57;;;;;;;12.30;6.45;;;12.10;94.30;;;;;;4933176;29;20024;-89
2021/12/31 06:56:25;;;;;;;12.23;6.18;;;12.10;94.10;;;;;;4931727;29;20028;-89
2021/12/31 06:58:53;;;;;;;13.35;6.95;;;12.10;93.90;;;;;;4932168;29;20048;-89
2021/12/31 07:01:21;;;;;;;12.27;6.18;;;12.20;93.70;;;;;;4926157;29;20047;-89
2021/12/31 07:03:46;;;;;;;11.02;6.05;;;12.20;93.90;;;;;;4923906;29;20143;-89
2021/12/31 07:06:17;;;;;;;8.30;5.63;;;12.10;93.90;;;;;;4931291;29;20027;-89
2021/12/31 07:08:50;;;;;;;10.88;5.55;;;12.20;93.90;;;;;;4928103;29;20111;-89
2021/12/31 07:11:21;;;;;;;11.57;6.35;;;12.20;93.80;;;;;;4931435;29;20027;-88
2021/12/31 07:13:50;;;;;;;8.73;5.03;;;12.10;93.80;;;;;;4932263;29;20087;-89
2021/12/31 07:16:16;;;;;;;8.82;5.18;;;12.20;93.70;;;;;;4933098;29;20519;-89
2021/12/31 07:18:41;;;;;;;8.35;5.28;;;12.30;93.50;;;;;;4923489;29;20032;-89
2021/12/31 07:21:07;;;;;;;8.50;5.10;;;12.30;93.60;;;;;;4932231;29;20028;-89
2021/12/31 07:23:33;;;;;;;7.95;5.10;;;12.30;93.40;;;;;;4930647;29;20020;-89
2021/12/31 07:25:59;;;;;;;10.65;5.15;;;12.40;93.40;;;;;;4934162;29;20030;-89
2021/12/31 07:28:29;;;;;;;9.82;5.47;;;12.30;93.50;;;;;;4930067;29;20035;-89
2021/12/31 07:30:55;;;;;;;8.20;4.80;;;12.40;93.00;;;;;;4932077;29;20038;-89
2021/12/31 07:33:23;;;;;;;7.10;4.57;;;12.50;93.00;;;;;;4925640;29;20093;-89
2021/12/31 07:35:55;;;;;;;8.88;4.90;;;12.40;93.00;;;;;;4939923;29;20023;-89
2021/12/31 07:38:35;;;;;;;7.97;4.50;;;12.50;92.90;;;;;;4928525;29;20032;-89
2021/12/31 07:41:02;;;;;;;8.70;5.00;;;12.50;92.90;;;;;;4932187;29;20042;-89
2021/12/31 07:43:28;;;;;;;8.75;4.70;;;12.50;93.00;;;;;;4927243;29;20040;-89
2021/12/31 07:45:54;;;;;;;13.15;4.85;;;12.40;93.00;;;;;;4928619;29;20056;-89
2021/12/31 07:48:23;;;;;;;6.57;4.72;;;12.50;92.90;;;;;;4929606;29;20088;-89
2021/12/31 07:50:50;;;;;;;7.10;4.45;;;12.50;93.00;;;;;;4923417;29;20043;-89
2021/12/31 07:53:18;;;;;;;8.82;4.60;;;12.50;93.00;;;;;;4929298;29;20032;-89
2021/12/31 07:55:45;;;;;;;8.18;4.35;;;12.50;92.90;;;;;;4931445;29;20031;-89
2021/12/31 07:58:10;;;;;;;9.30;4.45;;;12.50;93.00;;;;;;4924576;29;20803;-88
2021/12/31 08:00:36;;;;;;;9.38;4.47;;;12.40;93.30;;;;;;4930479;29;20032;-89
2021/12/31 08:03:03;;;;;;;9.02;4.18;;;12.50;93.20;;;;;;4928008;29;20063;-91
2021/12/31 08:05:30;;;;;;;7.20;4.18;;;12.50;92.80;;;;;;4922218;29;20489;-89
2021/12/31 08:08:00;;;;;;;6.95;4.00;;;12.50;93.00;;;;;;4927784;29;20042;-90
2021/12/31 08:10:28;;;;;;;8.68;3.83;;;12.50;92.90;;;;;;4930955;29;20047;-88
2021/12/31 08:12:53;;;;;;;6.78;4.03;;;12.50;92.90;;;;;;4928096;29;20087;-89
2021/12/31 08:15:19;;;;;;;7.07;3.63;;;12.50;92.90;;;;;;4931824;29;20416;-89
2021/12/31 08:17:44;;;;;;;6.70;3.92;;;12.50;92.80;;;;;;4930151;29;20540;-89
2021/12/31 08:20:10;;;;;;;7.00;4.20;;;12.50;92.60;;;;;;4926982;29;20063;-89
2021/12/31 08:22:36;;;;;;;5.97;3.28;;;12.50;92.60;;;;;;4931250;29;20395;-89
2021/12/31 08:25:03;;;;;;;8.05;3.47;;;12.50;92.40;;;;;;4931230;29;20062;-89
2021/12/31 08:27:28;;;;;;;6.70;3.45;;;12.50;92.70;;;;;;4930101;29;20027;-89
2021/12/31 08:29:54;;;;;;;7.47;3.67;;;12.50;92.80;;;;;;4931614;29;20034;-89
2021/12/31 08:32:19;;;;;;;7.13;3.15;;;12.40;92.80;;;;;;4930924;29;20114;-89
2021/12/31 08:34:45;;;;;;;5.07;2.83;;;12.60;92.10;;;;;;4928546;29;20027;-89
2021/12/31 08:37:10;;;;;;;5.88;3.25;;;12.60;92.10;;;;;;4931384;29;20028;-89
2021/12/31 08:39:36;;;;;;;6.25;2.95;;;12.60;92.10;;;;;;4931092;29;20500;-89
2021/12/31 08:42:02;;;;;;;7.07;3.20;;;12.50;92.40;;;;;;4931950;29;20035;-89
2021/12/31 08:44:28;;;;;;;6.60;2.78;;;12.60;92.20;;;;;;4931008;29;20024;-88
2021/12/31 08:46:54;;;;;;;6.82;2.70;;;12.60;92.10;;;;;;4942171;28;20074;-89
2021/12/31 08:49:20;;;;;;;4.85;2.95;;;12.60;91.90;;;;;;4925033;29;20609;-88
2021/12/31 08:51:46;;;;;;;5.00;2.80;;;12.60;91.90;;;;;;4932621;29;20504;-88
2021/12/31 08:54:12;;;;;;;7.75;2.80;;;12.50;92.00;;;;;;4931784;29;20027;-88
2021/12/31 08:56:37;;;;;;;5.57;2.78;;;12.60;91.90;;;;;;4928461;29;20024;-88
2021/12/31 08:59:03;;;;;;;5.03;2.38;;;12.70;91.30;;;;;;4929614;29;20035;-88
2021/12/31 09:01:29;;;;;;;4.60;2.20;;;12.60;91.60;;;;;;4926485;29;20031;-88
2021/12/31 09:03:54;;;;;;;5.07;2.30;;;12.70;91.60;;;;;;4944682;29;20031;-89
2021/12/31 09:06:20;;;;;;;5.90;2.70;;;12.60;91.50;;;;;;4925646;29;20050;-88
2021/12/31 09:08:46;;;;;;;9.23;2.85;;;12.70;91.10;;;;;;4931854;29;20492;-88
2021/12/31 09:11:12;;;;;;;6.07;2.40;;;12.70;91.10;;;;;;4931373;29;20123;-87
2021/12/31 09:13:38;;;;;;;3.97;2.53;;;12.80;90.70;;;;;;4935759;29;20579;-88
2021/12/31 09:16:04;;;;;;;4.93;2.80;;;12.80;90.40;;;;;;4926830;29;20028;-88
2021/12/31 09:18:30;;;;;;;6.30;2.67;;;12.80;90.60;;;;;;4926941;29;20028;-88
2021/12/31 09:20:55;;;;;;;7.20;2.90;;;12.80;90.50;;;;;;4925643;29;20031;-88
2021/12/31 09:23:23;;;;;;;6.85;3.00;;;12.80;90.30;;;;;;4942183;29;20090;-88
2021/12/31 09:25:49;;;;;;;4.53;2.53;;;12.80;90.40;;;;;;4932591;29;20059;-88
2021/12/31 09:28:16;;;;;;;7.93;2.53;;;12.80;90.40;;;;;;4934435;29;20115;-87
2021/12/31 09:30:42;;;;;;;9.57;2.88;;;12.90;90.10;;;;;;4933655;29;20051;-88
2021/12/31 09:33:08;;;;;;;4.03;2.35;;;12.90;89.80;;;;;;4932560;29;20042;-87
2021/12/31 09:35:33;;;;;;;5.32;2.42;;;13.00;89.40;;;;;;4928904;29;20020;-88
2021/12/31 09:38:00;;;;;;;7.43;2.60;;;13.00;89.60;;;;;;4933156;29;20028;-88
2021/12/31 09:40:26;;;;;;;6.43;2.78;;;13.00;89.60;;;;;;4931166;29;20030;-88
2021/12/31 09:43:02;;;;;;;4.53;2.70;;;13.00;89.50;;;;;;4923366;29;20028;-89
2021/12/31 09:45:27;;;;;;;6.22;2.65;;;13.00;89.20;;;;;;4943646;28;20039;-88
2021/12/31 09:47:58;;;;;;;4.05;2.58;;;13.10;89.10;;;;;;4930681;29;20047;-88
2021/12/31 09:50:24;;;;;;;5.35;2.25;;;13.00;89.30;;;;;;4926302;29;20020;-88
2021/12/31 09:52:54;;;;;;;6.47;2.72;;;13.00;89.30;;;;;;4941675;28;20425;-89
2021/12/31 09:55:46;;;;;;;5.78;3.03;;;13.00;89.50;;;;;;4930108;29;20397;-88
2021/12/31 09:58:14;;;;;;;5.10;2.75;;;13.00;89.30;;;;;;4930499;29;20058;-88
2021/12/31 10:00:43;;;;;;;7.65;2.75;;;13.00;89.00;;;;;;4925007;29;20428;-88
2021/12/31 10:03:21;;;;;;;5.38;2.38;;;13.00;88.90;;;;;;4928154;29;20102;-88
2021/12/31 10:05:49;;;;;;;6.45;2.80;;;13.10;88.70;;;;;;4928535;29;20127;-88
2021/12/31 10:08:22;;;;;;;5.95;2.60;;;13.10;88.90;;;;;;4931608;29;20082;-88
2021/12/31 10:11:10;;;;;;;7.68;2.90;;;13.10;89.00;;;;;;4934918;29;20059;-88
2021/12/31 10:13:42;;;;;;;6.65;3.92;;;13.10;88.90;;;;;;4946193;29;20098;-87
2021/12/31 10:16:20;;;;;;;5.90;2.70;;;13.10;89.00;;;;;;4930098;29;20072;-88
2021/12/31 10:18:49;;;;;;;6.68;2.90;;;13.10;88.30;;;;;;4923178;29;20048;-88
2021/12/31 10:21:19;;;;;;;7.40;2.40;;;13.20;88.50;;;;;;4929897;29;20484;-88
2021/12/31 10:23:46;;;;;;;6.82;2.75;;;13.20;88.00;;;;;;4931162;29;20016;-88
2021/12/31 10:26:15;;;;;;;5.93;2.45;;;13.20;88.00;;;;;;4928533;29;20032;-89
2021/12/31 10:28:59;;;;;;;6.15;2.80;;;13.30;88.10;;;;;;4927317;29;20039;-88
2021/12/31 10:31:27;;;;;;;5.32;2.30;;;13.30;88.50;;;;;;4931085;29;20032;-88
2021/12/31 10:33:53;;;;;;;6.68;2.47;;;13.20;88.20;;;;;;4927347;29;20181;-90
2021/12/31 10:36:36;;;;;;;5.00;2.05;;;13.20;88.10;;;;;;4931849;29;20532;-89
2021/12/31 10:39:15;;;;;;;4.70;2.70;;;13.30;88.30;;;;;;4925049;29;20031;-88
2021/12/31 10:41:44;;;;;;;6.53;2.55;;;13.20;88.20;;;;;;4927904;29;20126;-88
2021/12/31 10:44:11;;;;;;;7.35;2.22;;;13.20;88.20;;;;;;4927734;29;20510;-88
2021/12/31 10:46:36;;;;;;;5.05;2.60;;;13.10;88.40;;;;;;4930766;29;20027;-88
2021/12/31 10:49:09;;;;;;;4.97;2.30;;;13.10;88.40;;;;;;4932443;29;20035;-88
2021/12/31 10:51:42;;;;;;;5.75;2.38;;;13.00;88.80;;;;;;4949462;29;20031;-87
2021/12/31 10:54:19;;;;;;;6.03;2.28;;;13.00;88.60;;;;;;4926963;29;20032;-87
2021/12/31 10:56:44;;;;;;;4.45;2.20;;;13.00;88.50;;;;;;4932829;29;20024;-87
2021/12/31 10:59:10;;;;;;;5.55;2.25;;;13.10;88.30;;;;;;4927475;29;20039;-87
2021/12/31 11:01:36;;;;;;;5.88;2.50;;;13.00;88.50;;;;;;4931603;29;20065;-87
2021/12/31 11:04:05;;;;;;;8.45;2.78;;;13.10;88.00;;;;;;4926224;29;20028;-88
2021/12/31 11:06:33;;;;;;;4.72;2.30;;;13.10;88.30;;;;;;4926441;29;20040;-87
2021/12/31 11:09:05;;;;;;;7.13;3.03;;;13.00;88.60;;;;;;4928965;29;20090;-87
2021/12/31 11:11:31;;;;;;;6.22;2.80;;;13.00;88.50;;;;;;4929468;29;20032;-87
2021/12/31 11:13:57;;;;;;;3.00;2.10;;;12.90;88.80;;;;;;4926138;29;20503;-87
2021/12/31 11:16:22;;;;;;;5.78;2.70;;;13.00;88.80;;;;;;4929486;29;20023;-88
2021/12/31 11:18:53;;;;;;;4.97;2.60;;;13.00;88.50;;;;;;4925105;29;20459;-86
2021/12/31 11:21:19;;;;;;;4.37;2.37;;;12.90;88.80;;;;;;4921371;29;20137;-87
2021/12/31 11:23:45;;;;;;;6.35;2.55;;;12.90;89.00;;;;;;4940517;29;20357;-87
2021/12/31 11:26:13;;;;;;;4.60;2.85;;;12.90;89.00;;;;;;4930248;29;20310;-87
2021/12/31 11:28:44;;;;;;;5.03;2.08;;;13.00;88.60;;;;;;4929393;29;20499;-87
2021/12/31 11:31:18;;;;;;;4.68;2.40;;;13.00;88.60;;;;;;4931706;29;20600;-87
2021/12/31 11:34:11;;;;;;;8.40;2.20;;;13.00;88.50;;;;;;4941977;29;20023;-87
2021/12/31 11:36:51;;;;;;;5.80;2.63;;;13.00;88.30;;;;;;4947558;29;20032;-87
2021/12/31 11:39:29;;;;;;;4.53;2.50;;;12.90;88.80;;;;;;4926163;29;20083;-87
2021/12/31 11:42:00;;;;;;;7.63;2.95;;;12.90;88.90;;;;;;4932170;29;20054;-87
2021/12/31 11:44:27;;;;;;;;;;;12.90;88.80;;;;;;4932775;29;20023;-87
2021/12/31 11:47:12;;;;;;;5.90;2.58;;;12.90;89.00;;;;;;4932914;29;19914;-87
2021/12/31 11:49:37;;;;;;;5.13;2.33;;;12.90;88.70;;;;;;4929193;29;20102;-87
2021/12/31 11:52:09;;;;;;;4.75;2.33;;;12.90;89.40;;;;;;4932224;29;20566;-87
2021/12/31 11:54:37;;;;;;;6.95;2.78;;;12.80;89.30;;;;;;4929680;29;20552;-87
2021/12/31 11:57:08;;;;;;;4.80;2.70;;;12.80;89.40;;;;;;4931565;29;20020;-87
2021/12/31 11:59:34;;;;;;;;;;;12.70;90.10;;;;;;4930239;29;20356;-87
2021/12/31 12:02:15;;;;;;;6.03;2.95;;;12.70;90.00;;;;;;4931571;29;20449;-87
2021/12/31 12:05:07;;;;;;;5.95;2.83;;;12.80;89.80;;;;;;4929632;29;20024;-87
2021/12/31 12:07:34;;;;;;;5.35;2.80;;;12.70;90.00;;;;;;4932283;29;20086;-88
2021/12/31 12:10:02;;;;;;;5.43;2.60;;;12.70;89.70;;;;;;4929585;29;20057;-87
2021/12/31 12:12:31;;;;;;;7.28;3.08;;;12.70;89.80;;;;;;4924403;29;20035;-87
2021/12/31 12:14:59;;;;;;;5.38;2.58;;;12.60;89.90;;;;;;4925934;29;20441;-88
2021/12/31 12:17:30;;;;;;;6.13;2.63;;;12.80;89.50;;;;;;4926046;29;20032;-87
2021/12/31 12:20:01;;;;;;;6.63;2.90;;;12.70;89.50;;;;;;4926535;29;20036;-88
2021/12/31 12:22:32;;;;;;;4.20;2.47;;;12.70;89.60;;;;;;4926490;29;20028;-87
2021/12/31 12:25:12;;;;;;;;;;;12.70;89.50;;;;;;4937238;29;20082;-87
2021/12/31 12:27:38;;;;;;;5.50;2.30;;;12.80;89.30;;;;;;4934823;29;19910;-87
2021/12/31 12:30:07;;;;;;;6.40;2.65;;;12.70;89.70;;;;;;4930536;29;20511;-87
2021/12/31 12:32:37;;;;;;;5.93;2.60;;;12.70;89.60;;;;;;4937078;29;20066;-88
2021/12/31 12:35:16;;;;;;;8.98;2.50;;;12.70;89.90;;;;;;4928532;29;20032;-88
2021/12/31 12:37:43;;;;;;;5.05;2.60;;;12.60;90.30;;;;;;4935194;29;20028;-88
2021/12/31 12:40:10;;;;;;;5.15;2.83;;;12.60;90.50;;;;;;4936054;29;20387;-87
2021/12/31 12:42:43;;;;;;;7.85;2.90;;;12.50;90.80;;;;;;4935118;29;20510;-87
2021/12/31 12:45:09;;;;;;;5.85;2.95;;;12.50;90.70;;;;;;4937937;29;20038;-86
2021/12/31 12:47:37;;;;;;;7.97;2.95;;;12.50;90.40;;;;;;4934570;29;20035;-86
2021/12/31 12:50:08;;;;;;;5.50;3.03;;;12.60;90.00;;;;;;4933851;29;20035;-86
2021/12/31 12:52:34;;;;;;;4.70;2.58;;;12.60;89.70;;;;;;4934339;29;20034;-87
2021/12/31 12:55:14;;;;;;;5.75;2.83;;;12.70;89.30;;;;;;4936910;29;20421;-86
2021/12/31 12:57:41;;;;;;;4.63;2.67;;;12.80;89.40;;;;;;4931353;29;20399;-86
2021/12/31 13:00:09;;;;;;;6.05;3.00;;;12.70;89.40;;;;;;4935211;29;20031;-86
2021/12/31 13:02:43;;;;;;;5.00;3.00;;;12.80;89.20;;;;;;4935969;29;20111;-86
2021/12/31 13:05:16;;;;;;;4.90;2.83;;;12.80;89.10;;;;;;4929375;29;20058;-86
2021/12/31 13:07:51;;;;;;;8.80;3.10;;;12.80;89.20;;;;;;4935880;29;20035;-86
2021/12/31 13:10:17;;;;;;;5.60;2.72;;;12.70;89.30;;;;;;4934179;29;20023;-86
2021/12/31 13:12:43;;;;;;;7.38;3.05;;;12.70;89.30;;;;;;4934286;29;20055;-86
2021/12/31 13:15:09;;;;;;;7.90;3.28;;;12.70;89.40;;;;;;4933242;29;20028;-85